createdAt,value
2018-08-07T00:00:34.594Z,24.86
2018-08-07T00:01:34.585Z,24.89
2018-08-07T00:02:34.585Z,24.83
2018-08-07T00:03:34.834Z,24.67
2018-08-07T00:04:34.775Z,24.55
2018-08-07T00:05:34.585Z,24.71
2018-08-07T00:06:34.551Z,24.63
2018-08-07T00:07:34.596Z,24.63
2018-08-07T00:08:34.778Z,24.61
2018-08-07T00:09:34.774Z,24.74
2018-08-07T00:10:34.575Z,24.64
2018-08-07T00:11:34.782Z,24.70
2018-08-07T00:12:34.628Z,24.66
2018-08-07T00:13:34.621Z,24.74
2018-08-07T00:14:34.587Z,24.79
2018-08-07T00:15:34.780Z,24.60
2018-08-07T00:16:34.639Z,24.56
2018-08-07T00:17:34.559Z,24.49
2018-08-07T00:18:36.401Z,24.46
2018-08-07T00:19:34.578Z,24.31
2018-08-07T00:20:34.009Z,24.29
2018-08-07T00:21:34.582Z,24.31
2018-08-07T00:22:34.578Z,24.27
2018-08-07T00:23:34.579Z,24.49
2018-08-07T00:24:34.572Z,24.52
2018-08-07T00:25:36.336Z,24.30
2018-08-07T00:26:34.779Z,24.37
2018-08-07T00:27:34.568Z,24.39
2018-08-07T00:28:34.583Z,24.29
2018-08-07T00:29:34.730Z,24.27
2018-08-07T00:30:34.575Z,24.26
2018-08-07T00:31:34.632Z,24.30
2018-08-07T00:32:34.593Z,24.48
2018-08-07T00:33:34.598Z,24.41
2018-08-07T00:34:34.599Z,24.09
2018-08-07T00:35:34.595Z,24.06
2018-08-07T00:36:34.615Z,24.14
2018-08-07T00:37:34.587Z,24.19
2018-08-07T00:39:34.576Z,24.05
2018-08-07T00:40:34.600Z,24.05
2018-08-07T00:41:34.650Z,24.18
2018-08-07T00:42:34.726Z,24.19
2018-08-07T00:43:34.668Z,24.14
2018-08-07T00:44:34.668Z,24.06
2018-08-07T00:45:34.672Z,24.12
2018-08-07T00:46:34.625Z,24.05
2018-08-07T00:47:34.631Z,24.12
2018-08-07T00:48:34.653Z,24.12
2018-08-07T00:49:34.656Z,24.08
2018-08-07T00:50:34.680Z,23.97
2018-08-07T00:51:34.674Z,23.86
2018-08-07T00:52:34.637Z,23.90
2018-08-07T00:53:34.772Z,24.05
2018-08-07T00:54:34.650Z,24.09
2018-08-07T00:55:34.681Z,23.99
2018-08-07T00:56:34.682Z,24.04
2018-08-07T00:57:34.683Z,24.09
2018-08-07T00:58:34.798Z,23.97
2018-08-07T00:59:34.651Z,24.02
2018-08-07T01:00:34.683Z,23.92
2018-08-07T01:01:34.665Z,23.75
2018-08-07T01:02:34.657Z,23.82
2018-08-07T01:03:34.670Z,23.86
2018-08-07T01:04:34.690Z,23.92
2018-08-07T01:05:34.830Z,23.96
2018-08-07T01:06:34.761Z,24.02
2018-08-07T01:07:34.747Z,24.06
2018-08-07T01:08:34.661Z,24.09
2018-08-07T01:09:34.647Z,23.93
2018-08-07T01:10:34.588Z,23.87
2018-08-07T01:11:36.422Z,24.00
2018-08-07T01:12:34.644Z,23.96
2018-08-07T01:13:36.422Z,23.92
2018-08-07T01:14:34.587Z,23.79
2018-08-07T01:15:34.658Z,23.79
2018-08-07T01:16:34.646Z,23.72
2018-08-07T01:17:34.658Z,23.87
2018-08-07T01:18:34.678Z,23.72
2018-08-07T01:19:34.641Z,23.77
2018-08-07T01:20:34.676Z,23.77
2018-08-07T01:21:35.147Z,23.79
2018-08-07T01:22:34.806Z,23.75
2018-08-07T01:23:34.668Z,23.57
2018-08-07T01:24:34.641Z,23.62
2018-08-07T01:25:34.638Z,23.68
2018-08-07T01:26:34.664Z,23.62
2018-08-07T01:27:34.659Z,23.68
2018-08-07T01:28:34.647Z,23.64
2018-08-07T01:29:34.811Z,23.60
2018-08-07T01:30:34.625Z,23.67
2018-08-07T01:31:34.691Z,23.67
2018-08-07T01:32:34.606Z,23.69
2018-08-07T01:33:34.852Z,23.81
2018-08-07T01:34:34.623Z,23.82
2018-08-07T01:35:34.583Z,23.64
2018-08-07T01:36:34.799Z,23.59
2018-08-07T01:37:34.606Z,23.77
2018-08-07T01:38:34.615Z,23.60
2018-08-07T01:39:34.604Z,23.60
2018-08-07T01:40:34.631Z,23.67
2018-08-07T01:41:34.800Z,23.60
2018-08-07T01:42:34.582Z,23.62
2018-08-07T01:43:34.620Z,23.64
2018-08-07T01:44:34.865Z,23.49
2018-08-07T01:45:34.671Z,23.47
2018-08-07T01:46:34.730Z,23.47
2018-08-07T01:47:36.438Z,23.53
2018-08-07T01:48:34.678Z,23.53
2018-08-07T01:49:34.666Z,23.50
2018-08-07T01:50:34.691Z,23.52
2018-08-07T01:51:34.667Z,23.39
2018-08-07T01:52:34.698Z,23.44
2018-08-07T01:53:34.776Z,23.54
2018-08-07T01:54:34.668Z,23.39
2018-08-07T01:55:34.730Z,23.31
2018-08-07T01:56:34.717Z,23.39
2018-08-07T01:57:34.662Z,23.41
2018-08-07T01:58:34.773Z,23.57
2018-08-07T01:59:34.741Z,23.38
2018-08-07T02:00:34.823Z,23.34
2018-08-07T02:01:34.710Z,23.34
2018-08-07T02:02:34.843Z,23.49
2018-08-07T02:03:34.752Z,23.35
2018-08-07T02:04:34.742Z,23.31
2018-08-07T02:05:34.746Z,23.15
2018-08-07T02:06:34.769Z,23.23
2018-08-07T02:07:34.771Z,23.21
2018-08-07T02:08:34.723Z,23.29
2018-08-07T02:09:34.825Z,23.35
2018-08-07T02:10:34.758Z,23.38
2018-08-07T02:11:34.780Z,23.44
2018-08-07T02:12:34.680Z,23.37
2018-08-07T02:13:34.659Z,23.31
2018-08-07T02:14:34.668Z,23.35
2018-08-07T02:15:34.672Z,23.29
2018-08-07T02:16:34.660Z,23.35
2018-08-07T02:17:34.661Z,23.45
2018-08-07T02:18:34.692Z,23.35
2018-08-07T02:19:34.705Z,23.18
2018-08-07T02:20:34.694Z,23.22
2018-08-07T02:21:34.756Z,23.23
2018-08-07T02:22:34.666Z,23.15
2018-08-07T02:23:34.671Z,23.15
2018-08-07T02:24:34.812Z,23.03
2018-08-07T02:25:34.764Z,23.21
2018-08-07T02:26:34.753Z,23.16
2018-08-07T02:28:34.889Z,23.19
2018-08-07T02:29:34.878Z,23.16
2018-08-07T02:30:34.833Z,23.07
2018-08-07T02:31:34.853Z,23.03
2018-08-07T02:32:34.797Z,22.91
2018-08-07T02:33:34.823Z,23.06
2018-08-07T02:34:34.825Z,23.01
2018-08-07T02:35:34.765Z,22.91
2018-08-07T02:36:34.821Z,23.12
2018-08-07T02:37:34.773Z,22.94
2018-08-07T02:38:34.840Z,22.79
2018-08-07T02:39:34.835Z,22.93
2018-08-07T02:40:34.826Z,23.00
2018-08-07T02:41:34.893Z,23.00
2018-08-07T02:42:34.899Z,23.04
2018-08-07T02:43:35.390Z,23.00
2018-08-07T02:44:34.581Z,22.99
2018-08-07T02:45:34.867Z,23.12
2018-08-07T02:46:34.863Z,23.12
2018-08-07T02:47:34.602Z,22.99
2018-08-07T02:48:34.615Z,22.94
2018-08-07T02:49:34.860Z,22.88
2018-08-07T02:50:34.860Z,22.84
2018-08-07T02:51:34.827Z,22.82
2018-08-07T02:52:34.648Z,22.84
2018-08-07T02:53:34.813Z,22.91
2018-08-07T02:54:35.170Z,22.89
2018-08-07T02:55:34.797Z,22.96
2018-08-07T02:56:34.809Z,22.93
2018-08-07T02:57:34.773Z,23.03
2018-08-07T02:58:34.747Z,23.15
2018-08-07T02:59:34.836Z,22.93
2018-08-07T03:00:34.728Z,22.89
2018-08-07T03:01:34.794Z,22.81
2018-08-07T03:02:34.825Z,22.74
2018-08-07T03:03:34.786Z,22.72
2018-08-07T03:04:34.831Z,22.75
2018-08-07T03:05:34.826Z,22.93
2018-08-07T03:06:34.760Z,22.76
2018-08-07T03:07:34.845Z,22.81
2018-08-07T03:08:34.785Z,22.75
2018-08-07T03:09:34.929Z,22.76
2018-08-07T03:10:34.951Z,22.81
2018-08-07T03:11:35.006Z,22.93
2018-08-07T03:12:35.017Z,22.89
2018-08-07T03:13:34.871Z,22.78
2018-08-07T03:14:34.987Z,22.70
2018-08-07T03:15:35.020Z,22.61
2018-08-07T03:16:35.032Z,22.60
2018-08-07T03:17:34.810Z,22.57
2018-08-07T03:18:34.869Z,22.61
2018-08-07T03:19:34.820Z,22.66
2018-08-07T03:20:34.836Z,22.64
2018-08-07T03:21:34.763Z,22.60
2018-08-07T03:22:34.760Z,22.56
2018-08-07T03:23:35.104Z,22.61
2018-08-07T03:24:34.783Z,22.60
2018-08-07T03:25:34.722Z,22.81
2018-08-07T03:26:34.837Z,22.79
2018-08-07T03:27:34.728Z,22.66
2018-08-07T03:28:35.196Z,22.63
2018-08-07T03:29:34.858Z,22.64
2018-08-07T03:30:34.896Z,22.59
2018-08-07T03:31:34.980Z,22.52
2018-08-07T03:32:34.872Z,22.45
2018-08-07T03:33:34.985Z,22.48
2018-08-07T03:34:34.889Z,22.57
2018-08-07T03:35:34.836Z,22.42
2018-08-07T03:36:34.936Z,22.39
2018-08-07T03:37:34.859Z,22.41
2018-08-07T03:38:34.842Z,22.48
2018-08-07T03:39:34.901Z,22.49
2018-08-07T03:40:34.824Z,22.59
2018-08-07T03:41:34.903Z,22.51
2018-08-07T03:42:34.850Z,22.42
2018-08-07T03:43:34.994Z,22.44
2018-08-07T03:44:34.843Z,22.42
2018-08-07T03:45:35.399Z,22.35
2018-08-07T03:46:34.747Z,22.35
2018-08-07T03:47:34.719Z,22.36
2018-08-07T03:48:34.760Z,22.42
2018-08-07T03:49:34.768Z,22.42
2018-08-07T03:50:34.727Z,22.51
2018-08-07T03:51:34.847Z,22.33
2018-08-07T03:52:34.757Z,22.26
2018-08-07T03:53:37.063Z,22.35
2018-08-07T03:54:34.795Z,22.20
2018-08-07T03:55:34.758Z,22.20
2018-08-07T03:56:34.779Z,22.49
2018-08-07T03:57:34.786Z,22.36
2018-08-07T03:58:34.832Z,22.41
2018-08-07T03:59:34.818Z,22.31
2018-08-07T04:00:33.476Z,22.39
2018-08-07T04:01:33.394Z,22.33
2018-08-07T04:02:34.445Z,22.26
2018-08-07T04:03:34.471Z,22.17
2018-08-07T04:04:34.394Z,22.23
2018-08-07T04:05:34.851Z,22.31
2018-08-07T04:06:34.132Z,22.29
2018-08-07T04:07:34.710Z,22.33
2018-08-07T04:08:34.419Z,22.36
2018-08-07T04:09:34.886Z,22.44
2018-08-07T04:10:34.853Z,22.41
2018-08-07T04:11:33.361Z,22.54
2018-08-07T04:12:34.757Z,22.39
2018-08-07T04:13:34.636Z,22.31
2018-08-07T04:14:34.409Z,22.24
2018-08-07T04:15:34.875Z,22.27
2018-08-07T04:16:34.448Z,22.31
2018-08-07T04:17:33.359Z,22.27
2018-08-07T04:18:34.449Z,22.21
2018-08-07T04:19:34.409Z,22.20
2018-08-07T04:20:34.208Z,22.14
2018-08-07T04:21:34.556Z,22.19
2018-08-07T04:22:34.907Z,22.24
2018-08-07T04:23:34.509Z,22.12
2018-08-07T04:24:34.909Z,22.31
2018-08-07T04:25:34.859Z,22.35
2018-08-07T04:26:34.862Z,22.15
2018-08-07T04:27:34.862Z,22.08
2018-08-07T04:28:34.490Z,22.20
2018-08-07T04:29:34.917Z,22.23
2018-08-07T04:30:40.791Z,22.27
2018-08-07T04:31:34.161Z,22.41
2018-08-07T04:32:34.402Z,22.29
2018-08-07T04:33:34.916Z,22.21
2018-08-07T04:34:36.380Z,22.30
2018-08-07T04:35:34.460Z,22.31
2018-08-07T04:36:35.030Z,22.33
2018-08-07T04:37:35.413Z,22.30
2018-08-07T04:38:34.929Z,22.45
2018-08-07T04:39:34.169Z,22.38
2018-08-07T04:40:34.910Z,22.23
2018-08-07T04:41:33.472Z,22.35
2018-08-07T04:42:33.400Z,22.31
2018-08-07T04:43:34.085Z,22.30
2018-08-07T04:44:34.480Z,22.39
2018-08-07T04:45:33.412Z,22.41
2018-08-07T04:46:33.490Z,22.33
2018-08-07T04:47:34.103Z,22.38
2018-08-07T04:48:34.430Z,22.45
2018-08-07T04:49:34.416Z,22.41
2018-08-07T04:50:34.188Z,22.48
2018-08-07T04:51:34.078Z,22.39
2018-08-07T04:52:34.258Z,22.36
2018-08-07T04:53:34.417Z,22.45
2018-08-07T04:54:34.466Z,22.45
2018-08-07T04:55:34.163Z,22.49
2018-08-07T04:56:34.731Z,22.49
2018-08-07T04:57:34.739Z,22.42
2018-08-07T04:58:34.239Z,22.35
2018-08-07T04:59:36.554Z,22.30
2018-08-07T05:00:34.446Z,22.38
2018-08-07T05:01:33.453Z,22.42
2018-08-07T05:02:33.546Z,22.51
2018-08-07T05:03:34.880Z,22.46
2018-08-07T05:04:33.484Z,22.33
2018-08-07T05:05:34.995Z,22.41
2018-08-07T05:06:33.411Z,22.30
2018-08-07T05:07:35.273Z,22.30
2018-08-07T05:08:33.452Z,22.45
2018-08-07T05:09:33.436Z,22.48
2018-08-07T05:10:34.267Z,22.59
2018-08-07T05:11:33.454Z,22.54
2018-08-07T05:12:34.746Z,22.51
2018-08-07T05:13:33.484Z,22.56
2018-08-07T05:14:33.478Z,22.63
2018-08-07T05:15:37.292Z,22.61
2018-08-07T05:16:33.460Z,22.54
2018-08-07T05:17:34.769Z,22.66
2018-08-07T05:18:34.224Z,22.63
2018-08-07T05:19:33.513Z,22.61
2018-08-07T05:20:34.254Z,22.66
2018-08-07T05:21:34.758Z,22.74
2018-08-07T05:22:34.965Z,22.79
2018-08-07T05:23:36.422Z,22.82
2018-08-07T05:24:36.938Z,22.84
2018-08-07T05:25:33.581Z,22.75
2018-08-07T05:26:34.715Z,22.82
2018-08-07T05:27:34.922Z,22.74
2018-08-07T05:28:37.314Z,22.79
2018-08-07T05:29:33.477Z,22.85
2018-08-07T05:30:33.458Z,22.81
2018-08-07T05:31:34.934Z,22.93
2018-08-07T05:32:34.929Z,22.96
2018-08-07T05:33:33.467Z,23.06
2018-08-07T05:34:33.536Z,22.97
2018-08-07T05:35:34.590Z,22.85
2018-08-07T05:36:34.519Z,23.03
2018-08-07T05:37:33.534Z,23.07
2018-08-07T05:38:34.587Z,23.15
2018-08-07T05:39:34.217Z,23.18
2018-08-07T05:40:34.404Z,23.15
2018-08-07T05:41:34.167Z,23.22
2018-08-07T05:42:33.578Z,23.23
2018-08-07T05:43:34.228Z,23.14
2018-08-07T05:44:34.447Z,23.19
2018-08-07T05:45:34.437Z,23.16
2018-08-07T05:46:34.456Z,23.29
2018-08-07T05:47:36.995Z,23.29
2018-08-07T05:48:34.892Z,23.14
2018-08-07T05:49:34.455Z,23.22
2018-08-07T05:50:34.622Z,23.18
2018-08-07T05:51:34.664Z,23.21
2018-08-07T05:52:34.995Z,23.35
2018-08-07T05:53:34.943Z,23.41
2018-08-07T05:54:34.930Z,23.42
2018-08-07T05:55:35.397Z,23.39
2018-08-07T05:56:35.015Z,23.50
2018-08-07T05:57:34.945Z,23.44
2018-08-07T05:58:34.954Z,23.44
2018-08-07T05:59:35.397Z,23.39
2018-08-07T06:00:34.945Z,23.50
2018-08-07T06:01:34.953Z,23.59
2018-08-07T06:02:34.952Z,23.57
2018-08-07T06:03:35.397Z,23.67
2018-08-07T06:04:34.943Z,23.77
2018-08-07T06:05:34.964Z,23.69
2018-08-07T06:06:34.618Z,23.79
2018-08-07T06:07:33.530Z,23.60
2018-08-07T06:08:33.640Z,23.62
2018-08-07T06:09:35.542Z,23.68
2018-08-07T06:10:34.949Z,23.74
2018-08-07T06:11:34.544Z,23.79
2018-08-07T06:12:35.763Z,23.77
2018-08-07T06:13:35.951Z,23.78
2018-08-07T06:14:35.502Z,23.78
2018-08-07T06:15:34.904Z,23.79
2018-08-07T06:16:35.760Z,23.74
2018-08-07T06:17:35.451Z,23.86
2018-08-07T06:18:35.260Z,23.84
2018-08-07T06:19:35.523Z,23.96
2018-08-07T06:20:35.424Z,23.94
2018-08-07T06:21:35.408Z,24.12
2018-08-07T06:22:37.002Z,24.16
2018-08-07T06:23:35.334Z,24.19
2018-08-07T06:24:35.410Z,24.19
2018-08-07T06:25:35.272Z,24.15
2018-08-07T06:26:34.929Z,24.23
2018-08-07T06:27:35.415Z,24.21
2018-08-07T06:28:35.467Z,24.21
2018-08-07T06:29:35.319Z,24.21
2018-08-07T06:30:35.763Z,24.24
2018-08-07T06:31:35.593Z,24.34
2018-08-07T06:32:34.962Z,24.37
2018-08-07T06:33:35.413Z,24.42
2018-08-07T06:34:35.460Z,24.49
2018-08-07T06:35:35.753Z,24.44
2018-08-07T06:36:35.515Z,24.48
2018-08-07T06:37:35.653Z,24.55
2018-08-07T06:38:35.530Z,24.51
2018-08-07T06:39:35.469Z,24.60
2018-08-07T06:40:35.413Z,24.61
2018-08-07T06:41:35.412Z,24.74
2018-08-07T06:42:35.774Z,24.70
2018-08-07T06:43:35.490Z,24.64
2018-08-07T06:44:35.776Z,24.80
2018-08-07T06:45:35.511Z,24.79
2018-08-07T06:46:35.418Z,24.90
2018-08-07T06:47:35.491Z,24.94
2018-08-07T06:48:35.415Z,24.97
2018-08-07T06:49:35.229Z,25.01
2018-08-07T06:50:35.295Z,24.99
2018-08-07T06:51:35.473Z,25.04
2018-08-07T06:52:35.759Z,25.09
2018-08-07T06:53:37.289Z,25.12
2018-08-07T06:54:35.888Z,25.04
2018-08-07T06:55:35.445Z,25.20
2018-08-07T06:56:34.969Z,25.17
2018-08-07T06:57:35.808Z,25.23
2018-08-07T06:58:35.250Z,25.26
2018-08-07T06:59:35.475Z,25.24
2018-08-07T07:00:35.490Z,25.35
2018-08-07T07:01:35.464Z,25.27
2018-08-07T07:02:35.806Z,25.31
2018-08-07T07:03:35.524Z,25.30
2018-08-07T07:04:35.517Z,25.45
2018-08-07T07:05:35.026Z,25.38
2018-08-07T07:06:35.253Z,25.44
2018-08-07T07:07:35.430Z,25.49
2018-08-07T07:08:35.425Z,25.53
2018-08-07T07:09:35.225Z,25.60
2018-08-07T07:10:35.531Z,25.59
2018-08-07T07:11:35.494Z,25.63
2018-08-07T07:12:35.388Z,25.56
2018-08-07T07:13:35.235Z,25.63
2018-08-07T07:14:35.763Z,25.60
2018-08-07T07:15:35.261Z,25.69
2018-08-07T07:16:35.297Z,25.71
2018-08-07T07:17:35.266Z,25.79
2018-08-07T07:18:35.259Z,25.93
2018-08-07T07:19:35.489Z,25.86
2018-08-07T07:20:35.431Z,25.90
2018-08-07T07:21:35.434Z,25.90
2018-08-07T07:22:35.469Z,25.93
2018-08-07T07:23:38.006Z,25.98
2018-08-07T07:24:35.530Z,26.03
2018-08-07T07:25:34.756Z,26.12
2018-08-07T07:26:35.342Z,26.17
2018-08-07T07:27:35.314Z,26.23
2018-08-07T07:28:35.528Z,26.21
2018-08-07T07:29:35.556Z,26.24
2018-08-07T07:30:37.045Z,26.32
2018-08-07T07:31:35.457Z,26.20
2018-08-07T07:32:34.737Z,26.34
2018-08-07T07:33:35.461Z,26.29
2018-08-07T07:34:35.652Z,26.44
2018-08-07T07:35:35.436Z,26.51
2018-08-07T07:36:35.447Z,26.59
2018-08-07T07:37:35.300Z,26.50
2018-08-07T07:38:35.795Z,26.64
2018-08-07T07:39:35.488Z,26.61
2018-08-07T07:40:35.970Z,26.65
2018-08-07T07:41:35.506Z,26.79
2018-08-07T07:42:34.801Z,26.78
2018-08-07T07:43:35.442Z,26.84
2018-08-07T07:44:35.310Z,26.79
2018-08-07T07:45:35.301Z,26.83
2018-08-07T07:46:35.812Z,26.76
2018-08-07T07:47:35.318Z,26.90
2018-08-07T07:48:35.494Z,26.96
2018-08-07T07:49:35.280Z,26.98
2018-08-07T07:50:35.245Z,26.98
2018-08-07T07:51:35.518Z,26.96
2018-08-07T07:52:35.291Z,26.98
2018-08-07T07:53:35.561Z,27.05
2018-08-07T07:54:35.517Z,27.12
2018-08-07T07:55:35.422Z,27.16
2018-08-07T07:56:35.480Z,27.20
2018-08-07T07:57:37.545Z,27.20
2018-08-07T07:58:35.469Z,27.25
2018-08-07T07:59:35.549Z,27.24
2018-08-07T08:00:35.486Z,27.31
2018-08-07T08:01:35.508Z,27.28
2018-08-07T08:02:34.828Z,27.28
2018-08-07T08:03:35.320Z,27.28
2018-08-07T08:04:35.785Z,27.25
2018-08-07T08:05:35.829Z,27.31
2018-08-07T08:06:35.466Z,27.65
2018-08-07T08:07:35.807Z,27.62
2018-08-07T08:09:35.519Z,27.55
2018-08-07T08:10:35.005Z,27.55
2018-08-07T08:11:35.807Z,27.63
2018-08-07T08:12:35.528Z,27.58
2018-08-07T08:13:37.281Z,27.76
2018-08-07T08:14:35.529Z,27.80
2018-08-07T08:15:35.531Z,27.78
2018-08-07T08:16:35.814Z,27.83
2018-08-07T08:17:34.923Z,27.95
2018-08-07T08:18:35.534Z,27.96
2018-08-07T08:19:35.375Z,27.95
2018-08-07T08:20:35.566Z,28.02
2018-08-07T08:21:35.043Z,27.99
2018-08-07T08:22:35.306Z,28.02
2018-08-07T08:23:35.563Z,28.11
2018-08-07T08:24:35.571Z,28.18
2018-08-07T08:25:35.817Z,28.27
2018-08-07T08:26:35.461Z,28.24
2018-08-07T08:27:35.322Z,28.38
2018-08-07T08:28:35.816Z,28.52
2018-08-07T08:29:35.704Z,28.35
2018-08-07T08:30:36.011Z,28.57
2018-08-07T08:31:35.828Z,28.57
2018-08-07T08:32:35.364Z,28.46
2018-08-07T08:33:35.828Z,28.57
2018-08-07T08:34:35.921Z,28.57
2018-08-07T08:35:35.368Z,28.61
2018-08-07T08:36:35.471Z,28.70
2018-08-07T08:37:36.017Z,28.74
2018-08-07T08:38:35.382Z,28.69
2018-08-07T08:39:35.466Z,28.65
2018-08-07T08:40:35.519Z,28.65
2018-08-07T08:41:35.868Z,28.65
2018-08-07T08:42:35.276Z,28.77
2018-08-07T08:43:35.276Z,28.69
2018-08-07T08:44:35.507Z,28.80
2018-08-07T08:45:35.518Z,28.89
2018-08-07T08:46:35.487Z,28.98
2018-08-07T08:47:35.523Z,29.17
2018-08-07T08:48:36.015Z,29.25
2018-08-07T08:49:35.381Z,29.26
2018-08-07T08:50:35.473Z,29.26
2018-08-07T08:51:35.808Z,29.37
2018-08-07T08:52:35.979Z,29.35
2018-08-07T08:53:35.848Z,29.44
2018-08-07T08:54:35.324Z,29.35
2018-08-07T08:55:35.333Z,29.35
2018-08-07T08:56:35.399Z,29.21
2018-08-07T08:57:35.472Z,29.20
2018-08-07T08:58:35.833Z,29.26
2018-08-07T08:59:35.412Z,29.36
2018-08-07T09:00:35.292Z,29.49
2018-08-07T09:01:35.839Z,29.49
2018-08-07T09:02:35.496Z,29.47
2018-08-07T09:03:35.477Z,29.52
2018-08-07T09:04:35.486Z,29.57
2018-08-07T09:05:35.481Z,29.60
2018-08-07T09:06:35.480Z,29.66
2018-08-07T09:07:35.763Z,29.62
2018-08-07T09:08:35.819Z,29.76
2018-08-07T09:09:35.839Z,29.69
2018-08-07T09:10:35.678Z,29.73
2018-08-07T09:11:35.906Z,29.82
2018-08-07T09:12:35.855Z,29.84
2018-08-07T09:13:35.025Z,29.86
2018-08-07T09:14:35.966Z,29.92
2018-08-07T09:15:35.357Z,30.01
2018-08-07T09:16:35.483Z,30.15
2018-08-07T09:17:35.944Z,29.97
2018-08-07T09:18:35.505Z,30.10
2018-08-07T09:19:35.595Z,30.06
2018-08-07T09:20:35.079Z,30.07
2018-08-07T09:21:37.490Z,30.11
2018-08-07T09:22:36.052Z,30.28
2018-08-07T09:23:35.577Z,30.40
2018-08-07T09:24:36.030Z,30.45
2018-08-07T09:25:36.196Z,30.53
2018-08-07T09:26:37.991Z,30.46
2018-08-07T09:27:35.494Z,30.61
2018-08-07T09:28:35.908Z,30.61
2018-08-07T09:29:35.527Z,30.64
2018-08-07T09:30:35.540Z,30.66
2018-08-07T09:31:35.430Z,30.64
2018-08-07T09:32:35.800Z,30.63
2018-08-07T09:33:35.530Z,30.76
2018-08-07T09:34:35.469Z,30.66
2018-08-07T09:35:35.580Z,30.64
2018-08-07T09:36:35.524Z,30.60
2018-08-07T09:37:37.617Z,30.66
2018-08-07T09:38:35.836Z,30.91
2018-08-07T09:39:37.441Z,31.05
2018-08-07T09:40:35.878Z,30.97
2018-08-07T09:41:36.357Z,30.98
2018-08-07T09:42:36.360Z,30.93
2018-08-07T09:43:36.055Z,30.85
2018-08-07T09:44:36.354Z,30.85
2018-08-07T09:45:36.039Z,30.81
2018-08-07T09:46:35.915Z,30.90
2018-08-07T09:47:36.055Z,31.09
2018-08-07T09:48:36.437Z,31.01
2018-08-07T09:49:35.546Z,31.22
2018-08-07T09:50:36.057Z,31.34
2018-08-07T09:51:36.375Z,31.28
2018-08-07T09:52:35.844Z,31.49
2018-08-07T09:53:35.851Z,31.31
2018-08-07T09:54:35.823Z,31.23
2018-08-07T09:55:36.407Z,31.15
2018-08-07T09:56:36.122Z,31.25
2018-08-07T09:57:35.873Z,31.18
2018-08-07T09:58:35.894Z,31.41
2018-08-07T09:59:36.055Z,31.50
2018-08-07T10:00:36.113Z,31.41
2018-08-07T10:01:35.848Z,31.60
2018-08-07T10:02:35.562Z,31.65
2018-08-07T10:03:36.514Z,31.52
2018-08-07T10:04:36.111Z,31.47
2018-08-07T10:05:36.300Z,31.62
2018-08-07T10:06:35.894Z,31.59
2018-08-07T10:07:35.910Z,31.64
2018-08-07T10:08:35.945Z,31.69
2018-08-07T10:09:36.384Z,31.59
2018-08-07T10:10:36.539Z,31.69
2018-08-07T10:11:35.929Z,31.65
2018-08-07T10:12:35.927Z,31.71
2018-08-07T10:13:35.853Z,31.78
2018-08-07T10:14:35.843Z,31.85
2018-08-07T10:15:36.012Z,32.03
2018-08-07T10:16:36.047Z,32.19
2018-08-07T10:18:36.082Z,32.17
2018-08-07T10:19:36.014Z,32.12
2018-08-07T10:20:36.023Z,32.14
2018-08-07T10:21:36.101Z,31.99
2018-08-07T10:22:36.374Z,32.07
2018-08-07T10:23:35.843Z,32.24
2018-08-07T10:24:36.466Z,32.21
2018-08-07T10:25:36.134Z,32.34
2018-08-07T10:26:35.883Z,32.34
2018-08-07T10:27:35.890Z,32.19
2018-08-07T10:28:36.427Z,32.16
2018-08-07T10:29:35.260Z,32.19
2018-08-07T10:30:36.622Z,32.19
2018-08-07T10:31:36.126Z,32.19
2018-08-07T10:32:35.893Z,32.27
2018-08-07T10:33:36.062Z,32.28
2018-08-07T10:34:36.032Z,32.41
2018-08-07T10:35:36.038Z,32.32
2018-08-07T10:36:36.401Z,32.28
2018-08-07T10:37:36.473Z,32.40
2018-08-07T10:38:36.391Z,32.51
2018-08-07T10:39:36.589Z,32.59
2018-08-07T10:40:36.083Z,32.65
2018-08-07T10:41:36.082Z,32.83
2018-08-07T10:42:36.032Z,32.83
2018-08-07T10:43:36.362Z,32.66
2018-08-07T10:44:36.081Z,32.73
2018-08-07T10:45:35.843Z,32.85
2018-08-07T10:46:36.106Z,32.88
2018-08-07T10:47:36.119Z,32.91
2018-08-07T10:48:37.608Z,33.11
2018-08-07T10:49:36.590Z,32.83
2018-08-07T10:50:36.664Z,32.87
2018-08-07T10:51:36.404Z,32.91
2018-08-07T10:52:36.131Z,32.93
2018-08-07T10:53:36.541Z,32.95
2018-08-07T10:54:36.408Z,33.22
2018-08-07T10:55:36.124Z,33.24
2018-08-07T10:56:36.142Z,33.33
2018-08-07T10:57:36.394Z,33.38
2018-08-07T10:58:36.136Z,33.57
2018-08-07T10:59:38.141Z,33.47
2018-08-07T11:00:36.150Z,33.66
2018-08-07T11:01:35.929Z,33.71
2018-08-07T11:02:36.404Z,33.66
2018-08-07T11:03:35.806Z,33.66
2018-08-07T11:04:36.392Z,33.66
2018-08-07T11:05:36.418Z,33.70
2018-08-07T11:06:36.519Z,33.81
2018-08-07T11:07:35.669Z,33.81
2018-08-07T11:08:36.434Z,33.82
2018-08-07T11:09:36.109Z,33.99
2018-08-07T11:10:36.565Z,33.92
2018-08-07T11:11:36.624Z,33.99
2018-08-07T11:12:36.488Z,33.96
2018-08-07T11:13:36.217Z,33.97
2018-08-07T11:14:36.304Z,33.79
2018-08-07T11:15:36.617Z,33.89
2018-08-07T11:16:36.146Z,33.96
2018-08-07T11:17:35.696Z,34.12
2018-08-07T11:18:36.529Z,34.24
2018-08-07T11:19:36.695Z,34.21
2018-08-07T11:20:36.133Z,34.11
2018-08-07T11:21:38.415Z,34.19
2018-08-07T11:22:36.471Z,34.36
2018-08-07T11:23:36.605Z,34.50
2018-08-07T11:24:36.358Z,34.65
2018-08-07T11:25:35.727Z,34.78
2018-08-07T11:26:36.008Z,34.78
2018-08-07T11:27:36.095Z,34.63
2018-08-07T11:28:36.639Z,34.53
2018-08-07T11:29:36.556Z,34.55
2018-08-07T11:30:35.717Z,34.80
2018-08-07T11:31:36.112Z,34.78
2018-08-07T11:32:36.528Z,34.95
2018-08-07T11:33:36.426Z,34.99
2018-08-07T11:34:36.930Z,35.12
2018-08-07T11:35:36.586Z,34.98
2018-08-07T11:36:37.059Z,35.00
2018-08-07T11:37:38.579Z,35.22
2018-08-07T11:38:36.371Z,34.94
2018-08-07T11:39:36.627Z,34.91
2018-08-07T11:40:38.210Z,34.91
2018-08-07T11:41:36.561Z,34.99
2018-08-07T11:42:36.928Z,35.02
2018-08-07T11:43:36.323Z,35.29
2018-08-07T11:44:36.611Z,35.29
2018-08-07T11:45:36.940Z,35.20
2018-08-07T11:46:36.431Z,35.27
2018-08-07T11:47:36.592Z,35.47
2018-08-07T11:48:36.930Z,35.66
2018-08-07T11:49:36.588Z,35.52
2018-08-07T11:50:36.423Z,35.54
2018-08-07T11:51:36.574Z,35.65
2018-08-07T11:53:36.678Z,36.06
2018-08-07T11:54:38.216Z,36.06
2018-08-07T11:55:36.554Z,35.96
2018-08-07T11:56:36.569Z,36.00
2018-08-07T11:57:36.016Z,35.87
2018-08-07T11:58:36.937Z,35.78
2018-08-07T11:59:36.640Z,35.71
2018-08-07T12:00:36.831Z,35.74
2018-08-07T12:01:36.373Z,36.03
2018-08-07T12:02:36.391Z,36.25
2018-08-07T12:03:36.443Z,36.37
2018-08-07T12:04:38.945Z,36.65
2018-08-07T12:05:36.674Z,36.67
2018-08-07T12:06:36.701Z,36.46
2018-08-07T12:07:36.575Z,36.43
2018-08-07T12:08:38.648Z,36.49
2018-08-07T12:09:36.674Z,36.71
2018-08-07T12:10:36.974Z,37.04
2018-08-07T12:11:36.685Z,37.04
2018-08-07T12:12:38.234Z,37.05
2018-08-07T12:13:36.616Z,37.01
2018-08-07T12:14:36.593Z,37.23
2018-08-07T12:15:36.587Z,37.02
2018-08-07T12:16:36.589Z,36.97
2018-08-07T12:17:36.379Z,37.09
2018-08-07T12:18:36.660Z,37.02
2018-08-07T12:19:36.485Z,36.94
2018-08-07T12:20:37.075Z,37.25
2018-08-07T12:21:36.595Z,37.58
2018-08-07T12:22:36.085Z,37.70
2018-08-07T12:23:36.641Z,37.66
2018-08-07T12:24:36.626Z,37.63
2018-08-07T12:25:37.069Z,37.60
2018-08-07T12:26:36.591Z,37.77
2018-08-07T12:27:36.645Z,37.75
2018-08-07T12:28:36.554Z,37.90
2018-08-07T12:29:37.164Z,38.22
2018-08-07T12:30:36.894Z,38.19
2018-08-07T12:31:37.108Z,38.43
2018-08-07T12:32:38.667Z,38.86
2018-08-07T12:33:36.920Z,39.25
2018-08-07T12:34:36.961Z,39.20
2018-08-07T12:35:36.924Z,39.53
2018-08-07T12:36:36.971Z,39.88
2018-08-07T12:37:37.468Z,39.99
2018-08-07T12:38:37.660Z,40.06
2018-08-07T12:39:37.096Z,40.29
2018-08-07T12:40:37.458Z,40.83
2018-08-07T12:41:37.204Z,41.17
2018-08-07T12:42:36.597Z,41.39
2018-08-07T12:43:37.134Z,41.51
2018-08-07T12:44:37.165Z,41.67
2018-08-07T12:45:37.732Z,41.12
2018-08-07T12:46:37.136Z,41.41
2018-08-07T12:47:37.152Z,41.82
2018-08-07T12:48:37.494Z,41.74
2018-08-07T12:49:36.954Z,41.93
2018-08-07T12:50:37.202Z,42.30
2018-08-07T12:51:36.936Z,42.54
2018-08-07T12:52:37.233Z,42.73
2018-08-07T12:53:37.601Z,42.61
2018-08-07T12:54:37.555Z,42.62
2018-08-07T12:55:37.512Z,43.33
2018-08-07T12:56:37.692Z,43.11
2018-08-07T12:57:37.523Z,43.62